sensor_id;sensor_type;location;lat;lon;timestamp;P1;durP1;ratioP1;P2;durP2;ratioP2
44430;SDS011;30135;47.866;-4.222;2023-05-10T00:01:33;21.00;;;3.75;;
44430;SDS011;30135;47.866;-4.222;2023-05-10T00:03:59;22.70;;;2.75;;
44430;SDS011;30135;47.866;-4.222;2023-05-10T00:06:25;20.75;;;2.72;;
44430;SDS011;30135;47.866;-4.222;2023-05-10T00:08:51;30.95;;;3.67;;
44430;SDS011;30135;47.866;-4.222;2023-05-10T00:11:20;27.20;;;3.47;;
44430;SDS011;30135;47.866;-4.222;2023-05-10T00:13:46;33.03;;;3.90;;
44430;SDS011;30135;47.866;-4.222;2023-05-10T00:16:12;27.70;;;4.40;;
44430;SDS011;30135;47.866;-4.222;2023-05-10T00:18:39;22.08;;;3.25;;
44430;SDS011;30135;47.866;-4.222;2023-05-10T00:21:05;36.88;;;4.18;;
44430;SDS011;30135;47.866;-4.222;2023-05-10T00:23:31;21.05;;;5.20;;
44430;SDS011;30135;47.866;-4.222;2023-05-10T00:25:57;30.90;;;2.88;;
44430;SDS011;30135;47.866;-4.222;2023-05-10T00:28:23;19.38;;;4.07;;
44430;SDS011;30135;47.866;-4.222;2023-05-10T00:30:49;24.63;;;3.65;;
44430;SDS011;30135;47.866;-4.222;2023-05-10T00:33:15;19.48;;;2.63;;
44430;SDS011;30135;47.866;-4.222;2023-05-10T00:35:41;17.85;;;3.42;;
44430;SDS011;30135;47.866;-4.222;2023-05-10T00:38:14;33.35;;;3.10;;
44430;SDS011;30135;47.866;-4.222;2023-05-10T00:40:40;29.30;;;3.25;;
44430;SDS011;30135;47.866;-4.222;2023-05-10T00:43:12;16.65;;;2.67;;
44430;SDS011;30135;47.866;-4.222;2023-05-10T00:45:39;20.98;;;3.15;;
44430;SDS011;30135;47.866;-4.222;2023-05-10T00:48:06;18.60;;;3.65;;
44430;SDS011;30135;47.866;-4.222;2023-05-10T00:50:32;17.75;;;2.70;;
44430;SDS011;30135;47.866;-4.222;2023-05-10T00:52:58;18.35;;;3.72;;
44430;SDS011;30135;47.866;-4.222;2023-05-10T00:55:26;20.10;;;2.42;;
44430;SDS011;30135;47.866;-4.222;2023-05-10T00:57:52;25.25;;;2.67;;
44430;SDS011;30135;47.866;-4.222;2023-05-10T01:00:22;19.90;;;3.35;;
44430;SDS011;30135;47.866;-4.222;2023-05-10T01:02:48;28.63;;;3.50;;
44430;SDS011;30135;47.866;-4.222;2023-05-10T01:05:15;24.88;;;3.10;;
44430;SDS011;30135;47.866;-4.222;2023-05-10T01:07:41;22.75;;;2.20;;
44430;SDS011;30135;47.866;-4.222;2023-05-10T01:10:07;15.80;;;3.30;;
44430;SDS011;30135;47.866;-4.222;2023-05-10T01:12:35;25.55;;;3.17;;
44430;SDS011;30135;47.866;-4.222;2023-05-10T01:15:05;20.13;;;2.85;;
44430;SDS011;30135;47.866;-4.222;2023-05-10T01:17:34;33.95;;;4.47;;
44430;SDS011;30135;47.866;-4.222;2023-05-10T01:20:02;23.40;;;5.18;;
44430;SDS011;30135;47.866;-4.222;2023-05-10T01:34:38;21.42;;;2.70;;
44430;SDS011;30135;47.866;-4.222;2023-05-10T01:37:50;21.58;;;3.00;;
44430;SDS011;30135;47.866;-4.222;2023-05-10T01:43:23;30.13;;;2.90;;
44430;SDS011;30135;47.866;-4.222;2023-05-10T01:46:04;31.35;;;4.35;;
44430;SDS011;30135;47.866;-4.222;2023-05-10T01:48:42;34.28;;;4.25;;
44430;SDS011;30135;47.866;-4.222;2023-05-10T01:51:25;16.83;;;3.03;;
44430;SDS011;30135;47.866;-4.222;2023-05-10T01:54:01;33.95;;;4.40;;
44430;SDS011;30135;47.866;-4.222;2023-05-10T01:56:29;30.85;;;3.30;;
44430;SDS011;30135;47.866;-4.222;2023-05-10T01:58:58;21.23;;;3.50;;
44430;SDS011;30135;47.866;-4.222;2023-05-10T02:01:27;27.67;;;3.95;;
44430;SDS011;30135;47.866;-4.222;2023-05-10T02:03:53;18.45;;;3.40;;
44430;SDS011;30135;47.866;-4.222;2023-05-10T02:06:20;24.00;;;2.75;;
44430;SDS011;30135;47.866;-4.222;2023-05-10T02:08:49;23.85;;;3.42;;
44430;SDS011;30135;47.866;-4.222;2023-05-10T02:11:17;23.80;;;3.85;;
44430;SDS011;30135;47.866;-4.222;2023-05-10T02:13:46;23.17;;;3.15;;
44430;SDS011;30135;47.866;-4.222;2023-05-10T02:16:14;26.73;;;3.60;;
44430;SDS011;30135;47.866;-4.222;2023-05-10T02:18:42;26.85;;;2.58;;
44430;SDS011;30135;47.866;-4.222;2023-05-10T02:21:10;18.92;;;2.60;;
44430;SDS011;30135;47.866;-4.222;2023-05-10T02:23:37;20.50;;;3.63;;
44430;SDS011;30135;47.866;-4.222;2023-05-10T02:26:04;16.35;;;1.80;;
44430;SDS011;30135;47.866;-4.222;2023-05-10T02:28:31;9.05;;;2.08;;
44430;SDS011;30135;47.866;-4.222;2023-05-10T02:30:58;19.40;;;3.20;;
44430;SDS011;30135;47.866;-4.222;2023-05-10T02:33:25;8.65;;;1.50;;
44430;SDS011;30135;47.866;-4.222;2023-05-10T02:35:52;15.60;;;1.80;;
44430;SDS011;30135;47.866;-4.222;2023-05-10T02:38:20;16.17;;;2.90;;
44430;SDS011;30135;47.866;-4.222;2023-05-10T02:40:48;12.45;;;1.80;;
44430;SDS011;30135;47.866;-4.222;2023-05-10T02:43:15;18.90;;;4.13;;
44430;SDS011;30135;47.866;-4.222;2023-05-10T02:45:43;12.18;;;2.20;;
44430;SDS011;30135;47.866;-4.222;2023-05-10T02:48:12;23.85;;;3.80;;
44430;SDS011;30135;47.866;-4.222;2023-05-10T02:50:38;17.08;;;2.00;;
44430;SDS011;30135;47.866;-4.222;2023-05-10T02:53:18;17.13;;;3.45;;
44430;SDS011;30135;47.866;-4.222;2023-05-10T02:55:51;30.20;;;3.72;;
44430;SDS011;30135;47.866;-4.222;2023-05-10T02:58:22;38.95;;;4.80;;
44430;SDS011;30135;47.866;-4.222;2023-05-10T03:00:48;39.17;;;2.88;;
44430;SDS011;30135;47.866;-4.222;2023-05-10T03:03:14;21.35;;;3.03;;
44430;SDS011;30135;47.866;-4.222;2023-05-10T03:05:40;29.88;;;3.97;;
44430;SDS011;30135;47.866;-4.222;2023-05-10T03:08:06;22.85;;;3.58;;
44430;SDS011;30135;47.866;-4.222;2023-05-10T03:10:33;14.95;;;3.35;;
44430;SDS011;30135;47.866;-4.222;2023-05-10T03:13:32;28.55;;;3.88;;
44430;SDS011;30135;47.866;-4.222;2023-05-10T03:17:00;20.33;;;2.17;;
44430;SDS011;30135;47.866;-4.222;2023-05-10T03:19:48;19.95;;;2.63;;
44430;SDS011;30135;47.866;-4.222;2023-05-10T03:22:26;27.38;;;4.53;;
44430;SDS011;30135;47.866;-4.222;2023-05-10T03:25:04;26.75;;;3.75;;
44430;SDS011;30135;47.866;-4.222;2023-05-10T03:27:33;28.75;;;2.75;;
44430;SDS011;30135;47.866;-4.222;2023-05-10T03:30:04;32.25;;;4.60;;
44430;SDS011;30135;47.866;-4.222;2023-05-10T03:32:34;16.95;;;2.70;;
44430;SDS011;30135;47.866;-4.222;2023-05-10T03:35:00;25.52;;;3.40;;
44430;SDS011;30135;47.866;-4.222;2023-05-10T03:37:27;34.63;;;4.15;;
44430;SDS011;30135;47.866;-4.222;2023-05-10T03:39:53;23.38;;;3.45;;
44430;SDS011;30135;47.866;-4.222;2023-05-10T03:42:19;18.15;;;2.47;;
44430;SDS011;30135;47.866;-4.222;2023-05-10T03:44:44;29.30;;;3.58;;
44430;SDS011;30135;47.866;-4.222;2023-05-10T03:47:10;24.35;;;2.80;;
44430;SDS011;30135;47.866;-4.222;2023-05-10T03:49:36;32.33;;;3.28;;
44430;SDS011;30135;47.866;-4.222;2023-05-10T03:52:02;11.85;;;2.53;;
44430;SDS011;30135;47.866;-4.222;2023-05-10T03:54:29;22.08;;;3.63;;
44430;SDS011;30135;47.866;-4.222;2023-05-10T03:56:55;13.65;;;2.85;;
44430;SDS011;30135;47.866;-4.222;2023-05-10T03:59:21;26.83;;;4.15;;
44430;SDS011;30135;47.866;-4.222;2023-05-10T04:01:47;19.75;;;3.17;;
44430;SDS011;30135;47.866;-4.222;2023-05-10T04:04:13;18.13;;;3.58;;
44430;SDS011;30135;47.866;-4.222;2023-05-10T04:06:39;34.97;;;6.15;;
44430;SDS011;30135;47.866;-4.222;2023-05-10T04:09:05;26.90;;;2.78;;
44430;SDS011;30135;47.866;-4.222;2023-05-10T04:11:31;21.45;;;2.40;;
44430;SDS011;30135;47.866;-4.222;2023-05-10T04:13:57;35.70;;;3.10;;
44430;SDS011;30135;47.866;-4.222;2023-05-10T04:16:23;29.35;;;3.92;;
44430;SDS011;30135;47.866;-4.222;2023-05-10T04:18:49;22.30;;;2.70;;
44430;SDS011;30135;47.866;-4.222;2023-05-10T04:21:15;23.52;;;4.32;;
44430;SDS011;30135;47.866;-4.222;2023-05-10T04:23:41;25.50;;;2.88;;
44430;SDS011;30135;47.866;-4.222;2023-05-10T04:26:07;21.98;;;3.15;;
44430;SDS011;30135;47.866;-4.222;2023-05-10T04:28:33;30.35;;;3.28;;
44430;SDS011;30135;47.866;-4.222;2023-05-10T04:31:07;30.73;;;3.42;;
44430;SDS011;30135;47.866;-4.222;2023-05-10T04:33:34;32.17;;;4.18;;
44430;SDS011;30135;47.866;-4.222;2023-05-10T04:36:02;19.67;;;3.22;;
44430;SDS011;30135;47.866;-4.222;2023-05-10T04:38:28;21.30;;;3.80;;
44430;SDS011;30135;47.866;-4.222;2023-05-10T04:41:03;29.23;;;2.42;;
44430;SDS011;30135;47.866;-4.222;2023-05-10T04:43:33;30.42;;;3.03;;
44430;SDS011;30135;47.866;-4.222;2023-05-10T04:45:59;29.35;;;2.95;;
44430;SDS011;30135;47.866;-4.222;2023-05-10T04:48:25;20.05;;;2.80;;
44430;SDS011;30135;47.866;-4.222;2023-05-10T04:50:52;21.55;;;2.88;;
44430;SDS011;30135;47.866;-4.222;2023-05-10T04:53:18;20.65;;;4.20;;
44430;SDS011;30135;47.866;-4.222;2023-05-10T04:55:44;25.85;;;3.13;;
44430;SDS011;30135;47.866;-4.222;2023-05-10T04:58:11;21.65;;;2.88;;
44430;SDS011;30135;47.866;-4.222;2023-05-10T05:00:37;17.15;;;2.65;;
44430;SDS011;30135;47.866;-4.222;2023-05-10T05:03:03;15.98;;;3.22;;
44430;SDS011;30135;47.866;-4.222;2023-05-10T05:05:28;30.38;;;5.22;;
44430;SDS011;30135;47.866;-4.222;2023-05-10T05:07:54;23.80;;;3.47;;
44430;SDS011;30135;47.866;-4.222;2023-05-10T05:10:21;18.45;;;2.42;;
44430;SDS011;30135;47.866;-4.222;2023-05-10T05:12:47;22.27;;;3.08;;
44430;SDS011;30135;47.866;-4.222;2023-05-10T05:15:13;37.00;;;3.50;;
44430;SDS011;30135;47.866;-4.222;2023-05-10T05:17:40;21.40;;;2.50;;
44430;SDS011;30135;47.866;-4.222;2023-05-10T05:20:06;26.42;;;2.83;;
44430;SDS011;30135;47.866;-4.222;2023-05-10T05:22:33;19.90;;;2.88;;
44430;SDS011;30135;47.866;-4.222;2023-05-10T05:25:05;30.65;;;3.13;;
44430;SDS011;30135;47.866;-4.222;2023-05-10T05:27:31;19.35;;;3.25;;
44430;SDS011;30135;47.866;-4.222;2023-05-10T05:29:57;17.50;;;2.25;;
44430;SDS011;30135;47.866;-4.222;2023-05-10T05:32:24;15.95;;;3.55;;
44430;SDS011;30135;47.866;-4.222;2023-05-10T05:34:51;17.77;;;2.15;;
44430;SDS011;30135;47.866;-4.222;2023-05-10T05:37:20;18.70;;;2.65;;
44430;SDS011;30135;47.866;-4.222;2023-05-10T05:39:47;15.73;;;2.50;;
44430;SDS011;30135;47.866;-4.222;2023-05-10T05:42:13;17.55;;;2.80;;
44430;SDS011;30135;47.866;-4.222;2023-05-10T05:44:41;24.45;;;3.75;;
44430;SDS011;30135;47.866;-4.222;2023-05-10T05:47:07;28.55;;;3.88;;
44430;SDS011;30135;47.866;-4.222;2023-05-10T05:49:33;29.13;;;2.90;;
44430;SDS011;30135;47.866;-4.222;2023-05-10T05:52:00;23.98;;;3.10;;
44430;SDS011;30135;47.866;-4.222;2023-05-10T05:54:27;23.88;;;2.63;;
44430;SDS011;30135;47.866;-4.222;2023-05-10T05:56:57;29.25;;;3.72;;
44430;SDS011;30135;47.866;-4.222;2023-05-10T05:59:23;22.77;;;4.43;;
44430;SDS011;30135;47.866;-4.222;2023-05-10T06:01:49;15.68;;;1.98;;
44430;SDS011;30135;47.866;-4.222;2023-05-10T06:04:15;24.05;;;3.22;;
44430;SDS011;30135;47.866;-4.222;2023-05-10T06:06:42;18.65;;;2.83;;
44430;SDS011;30135;47.866;-4.222;2023-05-10T06:09:08;18.90;;;2.40;;
44430;SDS011;30135;47.866;-4.222;2023-05-10T06:11:35;40.55;;;4.38;;
44430;SDS011;30135;47.866;-4.222;2023-05-10T06:14:02;20.27;;;2.67;;
44430;SDS011;30135;47.866;-4.222;2023-05-10T06:16:33;18.13;;;3.47;;
44430;SDS011;30135;47.866;-4.222;2023-05-10T06:18:59;19.50;;;4.45;;
44430;SDS011;30135;47.866;-4.222;2023-05-10T06:21:25;30.10;;;3.90;;
44430;SDS011;30135;47.866;-4.222;2023-05-10T06:23:51;25.25;;;4.05;;
44430;SDS011;30135;47.866;-4.222;2023-05-10T06:26:17;25.15;;;2.88;;
44430;SDS011;30135;47.866;-4.222;2023-05-10T06:28:43;38.92;;;3.33;;
44430;SDS011;30135;47.866;-4.222;2023-05-10T06:31:09;34.60;;;5.60;;
44430;SDS011;30135;47.866;-4.222;2023-05-10T06:33:36;22.65;;;4.43;;
44430;SDS011;30135;47.866;-4.222;2023-05-10T06:36:02;17.15;;;2.28;;
44430;SDS011;30135;47.866;-4.222;2023-05-10T06:38:29;11.00;;;2.38;;
44430;SDS011;30135;47.866;-4.222;2023-05-10T06:40:55;34.42;;;4.10;;
44430;SDS011;30135;47.866;-4.222;2023-05-10T06:43:21;30.30;;;3.22;;
44430;SDS011;30135;47.866;-4.222;2023-05-10T06:45:50;17.25;;;2.67;;
44430;SDS011;30135;47.866;-4.222;2023-05-10T06:48:16;17.50;;;3.15;;
44430;SDS011;30135;47.866;-4.222;2023-05-10T06:50:42;9.90;;;1.67;;
44430;SDS011;30135;47.866;-4.222;2023-05-10T06:53:08;7.20;;;2.63;;
44430;SDS011;30135;47.866;-4.222;2023-05-10T06:55:33;6.13;;;1.45;;
44430;SDS011;30135;47.866;-4.222;2023-05-10T06:57:59;7.18;;;2.10;;
44430;SDS011;30135;47.866;-4.222;2023-05-10T07:00:25;17.20;;;2.53;;
44430;SDS011;30135;47.866;-4.222;2023-05-10T07:02:52;12.15;;;2.00;;
44430;SDS011;30135;47.866;-4.222;2023-05-10T07:05:18;7.97;;;1.45;;
44430;SDS011;30135;47.866;-4.222;2023-05-10T07:07:44;5.38;;;1.30;;
44430;SDS011;30135;47.866;-4.222;2023-05-10T07:10:11;14.63;;;1.27;;
44430;SDS011;30135;47.866;-4.222;2023-05-10T07:12:37;12.43;;;2.15;;
44430;SDS011;30135;47.866;-4.222;2023-05-10T07:15:03;17.17;;;1.40;;
44430;SDS011;30135;47.866;-4.222;2023-05-10T07:17:30;5.38;;;1.00;;
44430;SDS011;30135;47.866;-4.222;2023-05-10T07:19:56;15.20;;;1.58;;
44430;SDS011;30135;47.866;-4.222;2023-05-10T07:22:22;23.17;;;2.22;;
44430;SDS011;30135;47.866;-4.222;2023-05-10T07:24:48;6.05;;;1.20;;
44430;SDS011;30135;47.866;-4.222;2023-05-10T07:27:14;12.63;;;1.70;;
44430;SDS011;30135;47.866;-4.222;2023-05-10T07:29:40;10.85;;;1.88;;
44430;SDS011;30135;47.866;-4.222;2023-05-10T07:32:07;12.18;;;1.58;;
44430;SDS011;30135;47.866;-4.222;2023-05-10T07:34:33;9.57;;;1.00;;
44430;SDS011;30135;47.866;-4.222;2023-05-10T07:36:59;13.13;;;1.98;;
44430;SDS011;30135;47.866;-4.222;2023-05-10T07:39:25;16.25;;;2.08;;
44430;SDS011;30135;47.866;-4.222;2023-05-10T07:41:52;14.55;;;1.73;;
44430;SDS011;30135;47.866;-4.222;2023-05-10T07:44:19;13.63;;;1.35;;
44430;SDS011;30135;47.866;-4.222;2023-05-10T07:46:45;23.58;;;3.60;;
44430;SDS011;30135;47.866;-4.222;2023-05-10T07:49:12;9.43;;;1.50;;
44430;SDS011;30135;47.866;-4.222;2023-05-10T07:51:38;22.85;;;3.03;;
44430;SDS011;30135;47.866;-4.222;2023-05-10T07:54:04;16.00;;;1.92;;
44430;SDS011;30135;47.866;-4.222;2023-05-10T07:56:31;14.48;;;2.53;;
44430;SDS011;30135;47.866;-4.222;2023-05-10T07:59:01;18.83;;;2.83;;
44430;SDS011;30135;47.866;-4.222;2023-05-10T08:01:30;13.95;;;2.05;;
44430;SDS011;30135;47.866;-4.222;2023-05-10T08:03:58;11.52;;;2.20;;
44430;SDS011;30135;47.866;-4.222;2023-05-10T08:06:23;13.05;;;1.98;;
44430;SDS011;30135;47.866;-4.222;2023-05-10T08:08:52;11.25;;;1.55;;
44430;SDS011;30135;47.866;-4.222;2023-05-10T08:11:22;16.55;;;3.50;;
44430;SDS011;30135;47.866;-4.222;2023-05-10T08:13:48;10.50;;;2.42;;
44430;SDS011;30135;47.866;-4.222;2023-05-10T08:16:16;18.80;;;2.85;;
44430;SDS011;30135;47.866;-4.222;2023-05-10T08:18:43;15.95;;;2.60;;
44430;SDS011;30135;47.866;-4.222;2023-05-10T08:21:14;12.48;;;3.20;;
44430;SDS011;30135;47.866;-4.222;2023-05-10T08:23:40;17.08;;;2.60;;
44430;SDS011;30135;47.866;-4.222;2023-05-10T08:26:08;16.73;;;3.33;;
44430;SDS011;30135;47.866;-4.222;2023-05-10T08:28:34;13.10;;;1.70;;
44430;SDS011;30135;47.866;-4.222;2023-05-10T08:31:00;12.63;;;2.15;;
44430;SDS011;30135;47.866;-4.222;2023-05-10T08:33:26;16.05;;;2.78;;
44430;SDS011;30135;47.866;-4.222;2023-05-10T08:35:52;19.38;;;1.98;;
44430;SDS011;30135;47.866;-4.222;2023-05-10T08:38:18;18.55;;;2.97;;
44430;SDS011;30135;47.866;-4.222;2023-05-10T08:40:44;16.48;;;1.88;;
44430;SDS011;30135;47.866;-4.222;2023-05-10T08:43:12;9.77;;;2.45;;
44430;SDS011;30135;47.866;-4.222;2023-05-10T08:45:42;16.85;;;2.15;;
44430;SDS011;30135;47.866;-4.222;2023-05-10T08:48:13;19.38;;;4.30;;
44430;SDS011;30135;47.866;-4.222;2023-05-10T08:50:40;14.20;;;2.22;;
44430;SDS011;30135;47.866;-4.222;2023-05-10T08:53:11;19.25;;;1.90;;
44430;SDS011;30135;47.866;-4.222;2023-05-10T08:55:38;16.67;;;1.90;;
44430;SDS011;30135;47.866;-4.222;2023-05-10T08:58:07;11.88;;;1.80;;
44430;SDS011;30135;47.866;-4.222;2023-05-10T09:00:34;10.82;;;2.58;;
44430;SDS011;30135;47.866;-4.222;2023-05-10T09:03:03;19.05;;;2.95;;
44430;SDS011;30135;47.866;-4.222;2023-05-10T09:05:30;13.82;;;2.00;;
44430;SDS011;30135;47.866;-4.222;2023-05-10T09:07:57;20.15;;;2.10;;
44430;SDS011;30135;47.866;-4.222;2023-05-10T09:10:25;28.65;;;2.40;;
44430;SDS011;30135;47.866;-4.222;2023-05-10T09:12:52;22.52;;;2.72;;
44430;SDS011;30135;47.866;-4.222;2023-05-10T09:15:21;21.23;;;2.50;;
44430;SDS011;30135;47.866;-4.222;2023-05-10T09:17:47;27.63;;;3.33;;
44430;SDS011;30135;47.866;-4.222;2023-05-10T09:20:15;11.75;;;2.70;;
44430;SDS011;30135;47.866;-4.222;2023-05-10T09:22:42;19.88;;;2.40;;
44430;SDS011;30135;47.866;-4.222;2023-05-10T09:25:09;15.30;;;2.38;;
44430;SDS011;30135;47.866;-4.222;2023-05-10T09:27:41;23.58;;;2.28;;
44430;SDS011;30135;47.866;-4.222;2023-05-10T09:30:15;13.68;;;1.83;;
44430;SDS011;30135;47.866;-4.222;2023-05-10T09:32:50;17.58;;;2.13;;
44430;SDS011;30135;47.866;-4.222;2023-05-10T09:35:21;15.65;;;2.15;;
44430;SDS011;30135;47.866;-4.222;2023-05-10T09:37:53;15.80;;;1.70;;
44430;SDS011;30135;47.866;-4.222;2023-05-10T09:40:25;7.75;;;2.03;;
44430;SDS011;30135;47.866;-4.222;2023-05-10T09:42:56;11.25;;;1.83;;
44430;SDS011;30135;47.866;-4.222;2023-05-10T09:45:26;15.93;;;3.08;;
44430;SDS011;30135;47.866;-4.222;2023-05-10T09:47:55;25.10;;;2.33;;
44430;SDS011;30135;47.866;-4.222;2023-05-10T09:50:23;18.05;;;3.25;;
44430;SDS011;30135;47.866;-4.222;2023-05-10T09:58:09;16.33;;;3.20;;
44430;SDS011;30135;47.866;-4.222;2023-05-10T10:00:37;23.48;;;2.42;;
44430;SDS011;30135;47.866;-4.222;2023-05-10T10:03:15;19.58;;;2.67;;
44430;SDS011;30135;47.866;-4.222;2023-05-10T10:05:46;22.30;;;3.45;;
44430;SDS011;30135;47.866;-4.222;2023-05-10T10:08:14;19.70;;;3.45;;
44430;SDS011;30135;47.866;-4.222;2023-05-10T10:10:41;14.05;;;1.42;;
44430;SDS011;30135;47.866;-4.222;2023-05-10T10:13:09;17.35;;;3.22;;
44430;SDS011;30135;47.866;-4.222;2023-05-10T10:15:35;22.42;;;3.72;;
44430;SDS011;30135;47.866;-4.222;2023-05-10T10:18:02;14.38;;;2.53;;
44430;SDS011;30135;47.866;-4.222;2023-05-10T10:20:31;13.50;;;2.45;;
44430;SDS011;30135;47.866;-4.222;2023-05-10T10:22:57;18.17;;;2.20;;
44430;SDS011;30135;47.866;-4.222;2023-05-10T10:25:23;17.17;;;2.13;;
44430;SDS011;30135;47.866;-4.222;2023-05-10T10:36:06;14.20;;;2.42;;
44430;SDS011;30135;47.866;-4.222;2023-05-10T10:41:30;16.27;;;1.75;;
44430;SDS011;30135;47.866;-4.222;2023-05-10T10:57:55;12.50;;;1.38;;
44430;SDS011;30135;47.866;-4.222;2023-05-10T11:00:31;24.35;;;3.17;;
44430;SDS011;30135;47.866;-4.222;2023-05-10T11:03:10;8.52;;;1.55;;
44430;SDS011;30135;47.866;-4.222;2023-05-10T11:05:47;24.48;;;1.88;;
44430;SDS011;30135;47.866;-4.222;2023-05-10T11:08:27;12.85;;;2.03;;
44430;SDS011;30135;47.866;-4.222;2023-05-10T11:13:28;25.47;;;2.47;;
44430;SDS011;30135;47.866;-4.222;2023-05-10T11:16:13;20.52;;;1.65;;
44430;SDS011;30135;47.866;-4.222;2023-05-10T11:18:58;7.78;;;1.50;;
44430;SDS011;30135;47.866;-4.222;2023-05-10T11:21:27;11.77;;;2.10;;
44430;SDS011;30135;47.866;-4.222;2023-05-10T11:24:09;20.15;;;2.00;;
44430;SDS011;30135;47.866;-4.222;2023-05-10T11:26:40;19.85;;;1.55;;
44430;SDS011;30135;47.866;-4.222;2023-05-10T11:29:07;11.75;;;2.13;;
44430;SDS011;30135;47.866;-4.222;2023-05-10T11:31:33;11.30;;;1.92;;
44430;SDS011;30135;47.866;-4.222;2023-05-10T11:33:59;7.53;;;1.33;;
44430;SDS011;30135;47.866;-4.222;2023-05-10T11:41:26;8.00;;;1.80;;
44430;SDS011;30135;47.866;-4.222;2023-05-10T11:43:54;10.10;;;1.45;;
44430;SDS011;30135;47.866;-4.222;2023-05-10T11:46:23;7.53;;;1.20;;
44430;SDS011;30135;47.866;-4.222;2023-05-10T11:48:53;18.80;;;2.05;;
44430;SDS011;30135;47.866;-4.222;2023-05-10T11:51:25;13.85;;;1.27;;
44430;SDS011;30135;47.866;-4.222;2023-05-10T11:53:54;9.50;;;1.27;;
44430;SDS011;30135;47.866;-4.222;2023-05-10T11:56:22;11.48;;;1.10;;
44430;SDS011;30135;47.866;-4.222;2023-05-10T11:58:55;3.10;;;0.47;;
44430;SDS011;30135;47.866;-4.222;2023-05-10T12:01:23;6.07;;;1.05;;
44430;SDS011;30135;47.866;-4.222;2023-05-10T12:03:51;6.53;;;1.45;;
44430;SDS011;30135;47.866;-4.222;2023-05-10T12:06:20;2.33;;;0.73;;
44430;SDS011;30135;47.866;-4.222;2023-05-10T12:08:47;6.63;;;0.90;;
44430;SDS011;30135;47.866;-4.222;2023-05-10T12:11:17;4.32;;;0.80;;
44430;SDS011;30135;47.866;-4.222;2023-05-10T12:13:44;4.07;;;0.52;;
44430;SDS011;30135;47.866;-4.222;2023-05-10T12:16:18;7.82;;;0.90;;
44430;SDS011;30135;47.866;-4.222;2023-05-10T12:18:50;6.47;;;1.00;;
44430;SDS011;30135;47.866;-4.222;2023-05-10T12:21:17;5.18;;;0.63;;
44430;SDS011;30135;47.866;-4.222;2023-05-10T12:23:45;5.40;;;1.55;;
44430;SDS011;30135;47.866;-4.222;2023-05-10T12:26:13;10.63;;;1.67;;
44430;SDS011;30135;47.866;-4.222;2023-05-10T12:28:40;17.90;;;1.20;;
44430;SDS011;30135;47.866;-4.222;2023-05-10T12:31:06;3.90;;;0.70;;
44430;SDS011;30135;47.866;-4.222;2023-05-10T12:33:40;8.82;;;1.55;;
44430;SDS011;30135;47.866;-4.222;2023-05-10T12:36:10;7.25;;;1.10;;
44430;SDS011;30135;47.866;-4.222;2023-05-10T12:38:39;7.15;;;1.10;;
44430;SDS011;30135;47.866;-4.222;2023-05-10T12:41:14;18.77;;;1.17;;
44430;SDS011;30135;47.866;-4.222;2023-05-10T12:43:43;8.07;;;1.50;;
44430;SDS011;30135;47.866;-4.222;2023-05-10T12:46:25;9.65;;;1.30;;
44430;SDS011;30135;47.866;-4.222;2023-05-10T12:48:52;8.65;;;0.70;;
44430;SDS011;30135;47.866;-4.222;2023-05-10T12:51:20;11.18;;;1.02;;
44430;SDS011;30135;47.866;-4.222;2023-05-10T12:53:47;15.15;;;1.15;;
44430;SDS011;30135;47.866;-4.222;2023-05-10T12:56:13;8.43;;;1.48;;
44430;SDS011;30135;47.866;-4.222;2023-05-10T12:58:39;8.75;;;0.85;;
44430;SDS011;30135;47.866;-4.222;2023-05-10T13:01:05;12.93;;;0.90;;
44430;SDS011;30135;47.866;-4.222;2023-05-10T13:03:31;24.70;;;2.60;;
44430;SDS011;30135;47.866;-4.222;2023-05-10T13:05:57;10.43;;;3.35;;
44430;SDS011;30135;47.866;-4.222;2023-05-10T13:08:23;12.32;;;1.55;;
44430;SDS011;30135;47.866;-4.222;2023-05-10T13:10:49;12.23;;;2.53;;
44430;SDS011;30135;47.866;-4.222;2023-05-10T13:13:15;8.07;;;1.70;;
44430;SDS011;30135;47.866;-4.222;2023-05-10T13:15:43;9.20;;;1.50;;
44430;SDS011;30135;47.866;-4.222;2023-05-10T13:18:09;10.45;;;1.33;;
44430;SDS011;30135;47.866;-4.222;2023-05-10T13:20:35;10.88;;;1.10;;
44430;SDS011;30135;47.866;-4.222;2023-05-10T13:23:01;10.38;;;1.95;;
44430;SDS011;30135;47.866;-4.222;2023-05-10T13:25:27;9.68;;;0.95;;
44430;SDS011;30135;47.866;-4.222;2023-05-10T13:27:53;7.43;;;0.93;;
44430;SDS011;30135;47.866;-4.222;2023-05-10T13:30:19;7.70;;;1.05;;
44430;SDS011;30135;47.866;-4.222;2023-05-10T13:32:45;5.90;;;1.05;;
44430;SDS011;30135;47.866;-4.222;2023-05-10T13:35:11;11.35;;;1.15;;
44430;SDS011;30135;47.866;-4.222;2023-05-10T13:37:37;10.00;;;1.80;;
44430;SDS011;30135;47.866;-4.222;2023-05-10T13:40:03;13.85;;;1.58;;
44430;SDS011;30135;47.866;-4.222;2023-05-10T13:42:31;5.53;;;1.27;;
44430;SDS011;30135;47.866;-4.222;2023-05-10T13:44:58;7.30;;;2.25;;
44430;SDS011;30135;47.866;-4.222;2023-05-10T13:47:26;12.60;;;4.00;;
44430;SDS011;30135;47.866;-4.222;2023-05-10T13:49:52;10.18;;;1.90;;
44430;SDS011;30135;47.866;-4.222;2023-05-10T13:52:18;7.20;;;1.55;;
44430;SDS011;30135;47.866;-4.222;2023-05-10T13:54:44;8.50;;;1.27;;
44430;SDS011;30135;47.866;-4.222;2023-05-10T13:57:11;11.13;;;1.58;;
44430;SDS011;30135;47.866;-4.222;2023-05-10T13:59:38;3.20;;;0.60;;
44430;SDS011;30135;47.866;-4.222;2023-05-10T14:02:05;4.18;;;1.10;;
44430;SDS011;30135;47.866;-4.222;2023-05-10T14:04:31;4.65;;;0.93;;
44430;SDS011;30135;47.866;-4.222;2023-05-10T14:06:59;10.18;;;1.08;;
44430;SDS011;30135;47.866;-4.222;2023-05-10T14:09:25;11.73;;;1.30;;
44430;SDS011;30135;47.866;-4.222;2023-05-10T14:11:51;10.88;;;0.80;;
44430;SDS011;30135;47.866;-4.222;2023-05-10T14:14:17;10.15;;;1.92;;
44430;SDS011;30135;47.866;-4.222;2023-05-10T14:16:43;4.88;;;0.70;;
44430;SDS011;30135;47.866;-4.222;2023-05-10T14:19:10;14.48;;;1.75;;
44430;SDS011;30135;47.866;-4.222;2023-05-10T14:21:36;6.78;;;0.70;;
44430;SDS011;30135;47.866;-4.222;2023-05-10T14:24:03;6.70;;;1.33;;
44430;SDS011;30135;47.866;-4.222;2023-05-10T14:26:29;4.20;;;0.85;;
44430;SDS011;30135;47.866;-4.222;2023-05-10T14:28:56;7.20;;;1.25;;
44430;SDS011;30135;47.866;-4.222;2023-05-10T14:31:22;4.07;;;0.70;;
44430;SDS011;30135;47.866;-4.222;2023-05-10T14:33:50;5.70;;;0.80;;
44430;SDS011;30135;47.866;-4.222;2023-05-10T14:36:16;5.30;;;0.95;;
44430;SDS011;30135;47.866;-4.222;2023-05-10T14:38:43;3.95;;;0.65;;
44430;SDS011;30135;47.866;-4.222;2023-05-10T14:41:08;7.47;;;0.95;;
44430;SDS011;30135;47.866;-4.222;2023-05-10T14:43:39;7.85;;;0.75;;
44430;SDS011;30135;47.866;-4.222;2023-05-10T14:46:06;4.63;;;0.65;;
44430;SDS011;30135;47.866;-4.222;2023-05-10T14:48:32;8.60;;;0.90;;
44430;SDS011;30135;47.866;-4.222;2023-05-10T14:50:58;7.30;;;0.85;;
44430;SDS011;30135;47.866;-4.222;2023-05-10T14:53:23;10.57;;;0.88;;
44430;SDS011;30135;47.866;-4.222;2023-05-10T14:55:50;4.20;;;0.77;;
44430;SDS011;30135;47.866;-4.222;2023-05-10T14:58:16;9.82;;;1.00;;
44430;SDS011;30135;47.866;-4.222;2023-05-10T15:00:42;2.15;;;0.65;;
44430;SDS011;30135;47.866;-4.222;2023-05-10T15:03:08;6.82;;;0.90;;
44430;SDS011;30135;47.866;-4.222;2023-05-10T15:05:34;11.05;;;0.50;;
44430;SDS011;30135;47.866;-4.222;2023-05-10T15:08:02;20.30;;;2.55;;
44430;SDS011;30135;47.866;-4.222;2023-05-10T15:10:29;4.70;;;0.75;;
44430;SDS011;30135;47.866;-4.222;2023-05-10T15:12:55;7.20;;;0.60;;
44430;SDS011;30135;47.866;-4.222;2023-05-10T15:15:21;3.50;;;0.45;;
44430;SDS011;30135;47.866;-4.222;2023-05-10T15:17:47;11.18;;;0.77;;
44430;SDS011;30135;47.866;-4.222;2023-05-10T15:20:13;7.72;;;1.13;;
44430;SDS011;30135;47.866;-4.222;2023-05-10T15:22:39;7.18;;;0.75;;